Time;durP1;ratioP1;P1;durP2;ratioP2;P2;SDS_P1;SDS_P2;PMS_P1;PMS_P2;Temp;Humidity;BMP_temperature;BMP_pressure;BME280_temperature;BME280_humidity;BME280_pressure;Samples;Min_cycle;Max_cycle;Signal;HPM_P1;HPM_P2
2023/12/28 00:01:09;;;;;;;1.42;0.82;;;27.10;99.90;;;;;;5146404;27;20262;-79
2023/12/28 00:03:40;;;;;;;1.42;0.80;;;27.10;99.90;;;;;;5129362;27;20297;-78
2023/12/28 00:06:12;;;;;;;1.27;0.70;;;27.20;99.90;;;;;;5129483;27;20623;-79
2023/12/28 00:08:43;;;;;;;1.60;0.80;;;27.20;99.90;;;;;;5139370;27;20206;-79
2023/12/28 00:11:13;;;;;;;0.95;0.80;;;27.20;99.90;;;;;;5134766;27;20300;-79
2023/12/28 00:13:44;;;;;;;2.83;1.00;;;27.20;99.90;;;;;;5150715;27;20549;-80
2023/12/28 00:16:17;;;;;;;2.35;1.05;;;27.20;99.90;;;;;;5129624;27;20194;-80
2023/12/28 00:18:48;;;;;;;1.65;0.90;;;27.30;99.90;;;;;;5125632;27;20304;-79
2023/12/28 00:21:19;;;;;;;2.13;0.90;;;27.40;99.90;;;;;;5134114;27;20194;-79
2023/12/28 00:23:49;;;;;;;1.42;0.80;;;27.40;99.90;;;;;;5114625;27;20194;-82
2023/12/28 00:26:21;;;;;;;4.13;1.00;;;27.50;99.90;;;;;;5127661;27;20205;-81
2023/12/28 00:28:52;;;;;;;1.80;1.23;;;27.60;99.90;;;;;;5116595;27;20645;-80
2023/12/28 00:31:24;;;;;;;2.90;1.20;;;27.70;99.90;;;;;;5124879;27;20201;-81
2023/12/28 00:33:55;;;;;;;1.23;0.90;;;27.80;99.90;;;;;;5122968;27;20198;-82
2023/12/28 00:36:26;;;;;;;3.08;1.38;;;27.90;99.90;;;;;;5122513;27;20194;-82
2023/12/28 00:38:57;;;;;;;2.05;0.95;;;27.90;99.90;;;;;;5136254;27;20221;-81
2023/12/28 00:41:28;;;;;;;3.17;1.10;;;28.10;99.90;;;;;;5136095;27;20655;-81
2023/12/28 00:43:59;;;;;;;2.38;1.10;;;28.10;99.90;;;;;;5131584;27;20194;-80
2023/12/28 00:46:36;;;;;;;2.42;1.00;;;28.20;99.90;;;;;;5128467;27;20204;-81
2023/12/28 00:49:08;;;;;;;1.17;1.00;;;28.40;99.90;;;;;;5109233;27;20294;-81
2023/12/28 00:51:38;;;;;;;2.85;0.98;;;28.40;99.90;;;;;;5107162;27;20256;-80
2023/12/28 00:54:09;;;;;;;0.93;0.80;;;28.50;99.90;;;;;;5120256;27;20598;-81
2023/12/28 00:56:40;;;;;;;2.33;0.90;;;28.60;99.90;;;;;;5128726;27;20198;-81
2023/12/28 00:59:11;;;;;;;2.72;1.00;;;28.60;99.90;;;;;;5114255;27;20218;-81
2023/12/28 01:01:44;;;;;;;1.58;0.80;;;28.80;99.90;;;;;;5123246;27;20190;-82
2023/12/28 01:04:14;;;;;;;1.08;0.98;;;28.80;99.90;;;;;;5126790;27;20709;-80
2023/12/28 01:06:45;;;;;;;5.78;1.40;;;28.90;99.90;;;;;;5125336;27;20229;-80
2023/12/28 01:09:16;;;;;;;9.25;1.67;;;28.80;99.90;;;;;;5130880;27;20682;-81
2023/12/28 01:11:47;;;;;;;4.40;1.15;;;28.80;99.90;;;;;;5131213;27;20529;-82
2023/12/28 01:14:17;;;;;;;4.55;1.20;;;28.80;99.90;;;;;;5131936;27;20210;-81
2023/12/28 01:16:50;;;;;;;3.78;1.17;;;28.70;99.90;;;;;;5131612;27;20284;-82
2023/12/28 01:19:23;;;;;;;5.97;1.10;;;28.70;99.90;;;;;;5130114;27;20704;-83
2023/12/28 01:21:54;;;;;;;6.95;1.42;;;28.60;99.90;;;;;;5137230;27;20209;-82
2023/12/28 01:24:26;;;;;;;3.15;1.00;;;28.60;99.90;;;;;;5134907;27;20246;-82
2023/12/28 01:26:57;;;;;;;3.53;0.90;;;28.60;99.90;;;;;;5135910;27;20218;-80
2023/12/28 01:29:28;;;;;;;4.18;1.05;;;28.70;99.90;;;;;;5130775;28;20195;-82
2023/12/28 01:32:00;;;;;;;4.10;1.42;;;28.70;99.90;;;;;;5126280;27;20281;-83
2023/12/28 01:34:31;;;;;;;4.65;1.20;;;28.70;99.90;;;;;;5124360;27;20193;-81
2023/12/28 01:37:02;;;;;;;4.20;1.05;;;28.80;99.90;;;;;;5143546;27;20194;-80
2023/12/28 01:39:33;;;;;;;2.25;0.80;;;28.60;99.90;;;;;;5124759;27;20716;-79
2023/12/28 01:42:04;;;;;;;2.83;0.90;;;28.50;99.90;;;;;;5124445;27;20204;-81
2023/12/28 01:44:35;;;;;;;3.75;2.20;;;28.30;99.90;;;;;;5127535;27;20204;-80
2023/12/28 01:47:08;;;;;;;4.57;1.70;;;28.20;99.90;;;;;;5123147;27;20670;-81
2023/12/28 01:49:40;;;;;;;3.97;1.10;;;28.10;99.90;;;;;;5116315;27;20728;-80
2023/12/28 01:52:12;;;;;;;2.05;1.02;;;28.10;99.90;;;;;;5125646;27;20220;-79
2023/12/28 01:54:43;;;;;;;2.15;0.98;;;28.10;99.90;;;;;;5131639;27;20197;-78
2023/12/28 01:57:15;;;;;;;2.38;0.90;;;28.30;99.90;;;;;;5124192;27;20283;-79
2023/12/28 01:59:47;;;;;;;1.58;1.00;;;28.30;99.90;;;;;;5119236;27;20222;-79
2023/12/28 02:02:20;;;;;;;4.65;1.20;;;28.30;99.90;;;;;;5129392;27;20853;-79
2023/12/28 02:04:51;;;;;;;4.20;1.45;;;28.20;99.90;;;;;;5129501;27;20190;-79
2023/12/28 02:07:23;;;;;;;2.30;1.08;;;28.20;99.90;;;;;;5127379;27;20297;-79
2023/12/28 02:09:54;;;;;;;4.85;1.30;;;28.10;99.90;;;;;;5132289;27;20183;-78
2023/12/28 02:12:25;;;;;;;2.70;0.90;;;28.20;99.90;;;;;;5126999;27;20201;-80
2023/12/28 02:14:55;;;;;;;2.05;1.00;;;28.20;99.90;;;;;;5126397;27;21136;-79
2023/12/28 02:17:36;;;;;;;3.03;0.98;;;28.20;99.90;;;;;;5123994;27;20267;-79
2023/12/28 02:20:08;;;;;;;3.10;1.20;;;27.90;99.90;;;;;;5130156;27;20224;-80
2023/12/28 02:22:40;;;;;;;3.88;1.00;;;28.00;99.90;;;;;;5129419;27;20210;-80
2023/12/28 02:25:13;;;;;;;1.70;1.00;;;27.90;99.90;;;;;;5123440;27;20206;-80
2023/12/28 02:27:46;;;;;;;1.95;0.80;;;27.90;99.90;;;;;;5129419;27;20236;-80
2023/12/28 02:30:18;;;;;;;3.38;0.90;;;28.00;99.90;;;;;;5128444;27;20198;-80
2023/12/28 02:33:12;;;;;;;2.45;0.85;;;27.70;99.90;;;;;;5126975;27;20563;-81
2023/12/28 02:35:47;;;;;;;4.40;1.00;;;27.60;99.90;;;;;;5127563;27;20200;-81
2023/12/28 02:38:20;;;;;;;2.17;0.85;;;27.70;99.90;;;;;;5126485;27;20193;-79
2023/12/28 02:40:53;;;;;;;3.78;0.90;;;27.80;99.90;;;;;;5111494;28;20305;-80
2023/12/28 02:43:24;;;;;;;1.00;0.90;;;27.80;99.90;;;;;;5131357;27;20225;-80
2023/12/28 02:45:55;;;;;;;2.97;1.10;;;27.90;99.90;;;;;;5126338;27;20208;-81
2023/12/28 02:48:26;;;;;;;1.98;0.95;;;27.90;99.90;;;;;;5122273;27;20269;-80
2023/12/28 02:50:57;;;;;;;2.10;0.90;;;27.90;99.90;;;;;;5115454;27;20309;-81
2023/12/28 02:53:28;;;;;;;1.92;0.90;;;27.70;99.90;;;;;;5119139;27;20200;-81
2023/12/28 02:56:04;;;;;;;1.40;0.75;;;27.60;99.90;;;;;;5129076;27;20862;-80
2023/12/28 02:58:34;;;;;;;2.22;0.80;;;27.60;99.90;;;;;;5144764;27;20227;-79
2023/12/28 03:01:05;;;;;;;4.82;1.00;;;27.70;99.90;;;;;;5134396;28;20257;-81
2023/12/28 03:03:36;;;;;;;3.08;1.00;;;27.70;99.90;;;;;;5130992;28;20774;-80
2023/12/28 03:06:12;;;;;;;3.90;0.90;;;27.70;99.90;;;;;;5128231;28;20213;-81
2023/12/28 03:08:43;;;;;;;1.95;0.90;;;27.70;99.90;;;;;;5114022;28;20219;-80
2023/12/28 03:11:17;;;;;;;1.70;0.90;;;27.80;99.90;;;;;;5116023;27;20217;-80
2023/12/28 03:13:48;;;;;;;3.40;1.08;;;27.90;99.90;;;;;;5121134;28;20213;-80
2023/12/28 03:16:19;;;;;;;2.35;0.80;;;28.00;99.90;;;;;;5118367;27;20298;-80
2023/12/28 03:18:50;;;;;;;3.08;0.85;;;28.10;99.90;;;;;;5126514;27;20190;-79
2023/12/28 03:21:21;;;;;;;3.70;0.80;;;28.20;99.90;;;;;;5123359;27;20734;-79
2023/12/28 03:23:52;;;;;;;2.22;0.80;;;28.30;99.90;;;;;;5129292;27;20646;-79
2023/12/28 03:26:25;;;;;;;2.38;0.90;;;28.30;99.90;;;;;;5130125;27;20700;-80
2023/12/28 03:28:55;;;;;;;3.83;0.90;;;28.40;99.90;;;;;;5134526;27;20692;-78
2023/12/28 03:31:26;;;;;;;1.85;1.00;;;28.50;99.90;;;;;;5124237;27;20217;-79
2023/12/28 03:33:57;;;;;;;2.35;1.02;;;28.60;99.90;;;;;;5117534;27;20236;-79
2023/12/28 03:36:29;;;;;;;1.83;1.00;;;28.70;99.90;;;;;;5129495;27;20572;-79
2023/12/28 03:39:00;;;;;;;2.33;1.15;;;28.70;99.90;;;;;;5091973;27;20199;-79
2023/12/28 03:41:33;;;;;;;3.47;1.38;;;28.70;99.90;;;;;;5124376;27;20304;-80
2023/12/28 03:44:03;;;;;;;2.00;1.05;;;28.70;99.90;;;;;;5127803;27;20194;-79
2023/12/28 03:46:34;;;;;;;1.80;0.70;;;28.80;99.90;;;;;;5129630;27;20200;-80
2023/12/28 03:49:05;;;;;;;2.78;0.75;;;28.80;99.90;;;;;;5124033;27;20228;-80
2023/12/28 03:51:36;;;;;;;1.70;0.70;;;28.90;99.90;;;;;;5129080;27;20201;-79
2023/12/28 03:54:07;;;;;;;1.75;0.75;;;28.80;99.90;;;;;;5129261;27;20228;-78
2023/12/28 03:56:40;;;;;;;1.50;1.10;;;28.70;99.90;;;;;;5122463;27;20206;-81
2023/12/28 03:59:11;;;;;;;0.85;0.70;;;28.60;99.90;;;;;;5123312;27;20213;-81
2023/12/28 04:01:42;;;;;;;2.88;1.30;;;28.60;99.90;;;;;;5120158;27;20230;-80
2023/12/28 04:04:15;;;;;;;2.55;1.02;;;28.70;99.90;;;;;;5134451;27;20221;-80
2023/12/28 04:06:46;;;;;;;1.63;0.70;;;28.80;99.90;;;;;;5133608;27;20273;-79
2023/12/28 04:09:17;;;;;;;2.08;0.50;;;28.80;99.90;;;;;;5126014;27;20231;-79
2023/12/28 04:11:50;;;;;;;3.05;0.70;;;28.90;99.90;;;;;;5117989;27;20190;-80
2023/12/28 04:14:20;;;;;;;2.13;0.80;;;28.90;99.90;;;;;;5123564;27;20207;-79
2023/12/28 04:16:51;;;;;;;1.83;1.00;;;28.80;99.90;;;;;;5131723;27;20194;-79
2023/12/28 04:19:22;;;;;;;2.40;1.42;;;28.70;99.90;;;;;;5131517;27;20189;-79
2023/12/28 04:21:53;;;;;;;1.30;1.20;;;28.60;99.90;;;;;;5116154;27;20209;-79
2023/12/28 04:24:23;;;;;;;0.98;0.88;;;28.50;99.90;;;;;;5142469;27;20190;-80
2023/12/28 04:26:56;;;;;;;1.13;0.77;;;28.40;99.90;;;;;;5142079;27;20281;-79
2023/12/28 04:29:28;;;;;;;1.48;0.90;;;28.40;99.90;;;;;;5126272;27;20201;-78
2023/12/28 04:31:59;;;;;;;0.80;0.77;;;28.30;99.90;;;;;;5135086;27;20575;-79
2023/12/28 04:34:30;;;;;;;1.85;1.20;;;28.20;99.90;;;;;;5126710;27;20218;-78
2023/12/28 04:37:01;;;;;;;1.45;0.90;;;28.30;99.90;;;;;;5130880;27;20739;-79
2023/12/28 04:39:31;;;;;;;1.95;0.85;;;28.40;99.90;;;;;;5124805;27;20201;-79
2023/12/28 04:42:04;;;;;;;4.47;0.85;;;28.60;99.90;;;;;;5113026;27;20198;-79
2023/12/28 04:44:39;;;;;;;1.00;0.90;;;28.80;99.90;;;;;;5124692;27;20186;-78
2023/12/28 04:47:10;;;;;;;2.63;0.98;;;28.90;99.90;;;;;;5123507;27;20565;-78
2023/12/28 04:49:41;;;;;;;1.90;1.70;;;29.00;99.90;;;;;;5129339;27;20236;-78
2023/12/28 04:52:13;;;;;;;1.30;1.08;;;29.10;99.90;;;;;;5116299;27;20225;-78
2023/12/28 04:54:44;;;;;;;1.95;0.90;;;29.10;99.90;;;;;;5120935;27;20209;-79
2023/12/28 04:57:17;;;;;;;3.13;0.80;;;29.20;99.90;;;;;;5116321;27;20194;-79
2023/12/28 04:59:48;;;;;;;1.38;0.88;;;29.20;99.90;;;;;;5124779;27;20197;-79
2023/12/28 05:02:19;;;;;;;2.17;0.60;;;29.30;99.90;;;;;;5130815;27;20194;-79
2023/12/28 05:04:49;;;;;;;2.53;0.50;;;29.50;99.90;;;;;;5131863;27;20198;-79
2023/12/28 05:07:20;;;;;;;2.88;0.70;;;29.50;99.90;;;;;;5121324;27;20198;-79
2023/12/28 05:09:53;;;;;;;1.45;0.60;;;29.40;99.90;;;;;;5119463;27;20219;-80
2023/12/28 05:12:26;;;;;;;1.10;0.60;;;29.50;99.90;;;;;;5123198;27;20710;-80
2023/12/28 05:14:57;;;;;;;0.50;0.50;;;29.40;99.90;;;;;;5121148;27;20286;-80
2023/12/28 05:17:27;;;;;;;2.40;1.20;;;29.50;99.90;;;;;;5120940;27;20590;-78
2023/12/28 05:19:58;;;;;;;2.00;0.80;;;29.50;99.90;;;;;;5032804;27;20221;-79
2023/12/28 05:22:29;;;;;;;1.20;0.80;;;29.60;99.90;;;;;;5126408;27;20664;-77
2023/12/28 05:25:00;;;;;;;3.92;0.68;;;29.60;99.90;;;;;;5117642;27;20214;-79
2023/12/28 05:27:32;;;;;;;1.58;0.70;;;29.70;99.90;;;;;;5124108;27;20632;-80
2023/12/28 05:30:03;;;;;;;2.00;0.60;;;29.70;99.90;;;;;;5126789;27;20234;-80
2023/12/28 05:32:34;;;;;;;1.13;0.80;;;29.90;99.90;;;;;;5132725;27;20291;-79
2023/12/28 05:35:05;;;;;;;2.15;0.75;;;29.80;99.90;;;;;;5118841;27;20194;-80
2023/12/28 05:37:36;;;;;;;0.98;0.70;;;29.90;99.90;;;;;;5115774;27;20569;-80
2023/12/28 05:40:09;;;;;;;3.50;1.00;;;30.00;99.90;;;;;;5132180;27;20389;-80
2023/12/28 05:42:42;;;;;;;1.83;0.70;;;30.10;99.90;;;;;;5114685;27;20218;-78
2023/12/28 05:45:13;;;;;;;0.70;0.60;;;30.30;99.90;;;;;;5118803;27;20214;-79
2023/12/28 05:47:44;;;;;;;1.33;0.70;;;30.30;99.90;;;;;;5131963;27;20204;-78
2023/12/28 05:50:15;;;;;;;1.60;0.60;;;30.30;99.90;;;;;;5116506;27;20226;-79
2023/12/28 05:52:46;;;;;;;2.33;1.27;;;30.60;99.90;;;;;;5126106;27;20210;-79
2023/12/28 05:55:16;;;;;;;2.28;1.10;;;30.80;99.90;;;;;;5126713;27;20300;-79
2023/12/28 05:57:49;;;;;;;2.15;1.20;;;31.00;99.90;;;;;;5121170;27;20214;-79
2023/12/28 06:00:20;;;;;;;2.95;1.80;;;31.10;97.20;;;;;;5136593;27;20270;-79
2023/12/28 06:02:51;;;;;;;2.38;1.20;;;31.10;95.90;;;;;;5127891;27;20186;-78
2023/12/28 06:05:22;;;;;;;2.75;1.17;;;31.30;95.40;;;;;;5130695;27;20194;-78
2023/12/28 06:07:53;;;;;;;1.42;1.00;;;31.60;95.60;;;;;;5122752;27;20239;-77
2023/12/28 06:10:24;;;;;;;2.78;0.90;;;31.90;94.20;;;;;;5148425;27;20189;-77
2023/12/28 06:12:57;;;;;;;1.95;0.90;;;32.40;94.00;;;;;;5128968;27;20782;-78
2023/12/28 06:15:27;;;;;;;3.15;1.55;;;32.50;92.00;;;;;;5132237;27;20205;-79
2023/12/28 06:17:58;;;;;;;1.27;1.15;;;32.50;91.10;;;;;;5081699;27;20660;-78
2023/12/28 06:20:29;;;;;;;2.25;1.08;;;32.50;91.10;;;;;;5129108;27;20579;-78
2023/12/28 06:23:00;;;;;;;1.88;0.60;;;32.50;91.10;;;;;;5079848;27;20206;-78
2023/12/28 06:25:30;;;;;;;2.38;1.10;;;32.60;90.10;;;;;;5138271;27;20197;-79
2023/12/28 06:28:03;;;;;;;1.38;0.63;;;32.50;89.30;;;;;;5123430;27;20213;-79
2023/12/28 06:30:34;;;;;;;2.28;1.00;;;32.70;88.60;;;;;;5127739;27;20194;-78
2023/12/28 06:33:05;;;;;;;1.88;1.08;;;32.70;90.10;;;;;;5130985;27;20190;-78
2023/12/28 06:35:35;;;;;;;1.17;0.90;;;32.80;88.30;;;;;;5138698;27;20223;-79
2023/12/28 06:38:06;;;;;;;2.17;1.45;;;33.00;88.50;;;;;;5126980;27;20198;-77
2023/12/28 06:40:37;;;;;;;2.83;1.60;;;33.10;87.50;;;;;;5127816;27;20790;-79
2023/12/28 06:43:10;;;;;;;3.67;1.35;;;33.40;86.00;;;;;;5123467;27;20268;-78
2023/12/28 06:45:41;;;;;;;2.00;1.10;;;33.70;84.60;;;;;;5127523;27;20198;-78
2023/12/28 06:48:11;;;;;;;2.03;0.90;;;34.20;83.10;;;;;;5141363;27;20193;-78
2023/12/28 06:50:42;;;;;;;2.13;0.80;;;34.30;81.00;;;;;;5127690;27;20230;-78
2023/12/28 06:53:13;;;;;;;1.52;0.82;;;34.90;80.00;;;;;;5125006;27;20708;-77
2023/12/28 06:55:44;;;;;;;2.65;0.80;;;35.40;77.40;;;;;;5128730;27;20190;-78
2023/12/28 06:58:16;;;;;;;2.90;0.50;;;35.60;73.90;;;;;;5121674;27;20194;-80
2023/12/28 07:00:47;;;;;;;3.17;0.70;;;35.70;73.80;;;;;;5075486;28;20230;-78
2023/12/28 07:03:18;;;;;;;1.75;0.68;;;36.00;70.40;;;;;;5129831;28;20202;-79
2023/12/28 07:05:49;;;;;;;1.95;0.70;;;35.70;71.10;;;;;;5131102;28;20304;-79
2023/12/28 07:08:20;;;;;;;1.77;0.50;;;35.20;72.20;;;;;;5122743;27;20194;-78
2023/12/28 07:10:51;;;;;;;2.13;1.02;;;35.20;73.40;;;;;;5110476;28;20271;-79
2023/12/28 07:13:24;;;;;;;1.55;0.80;;;35.40;71.90;;;;;;5125815;28;20224;-80
2023/12/28 07:15:55;;;;;;;2.88;0.90;;;35.90;70.70;;;;;;5123881;27;20297;-80
2023/12/28 07:18:26;;;;;;;3.08;1.20;;;36.00;70.30;;;;;;5126770;27;20736;-80
2023/12/28 07:20:57;;;;;;;2.28;0.80;;;36.20;69.40;;;;;;5139209;27;20221;-79
2023/12/28 07:23:27;;;;;;;1.48;0.80;;;36.30;68.10;;;;;;5126865;27;20289;-80
2023/12/28 07:26:00;;;;;;;3.45;0.82;;;36.60;67.00;;;;;;5124055;27;20653;-80
2023/12/28 07:28:34;;;;;;;3.97;0.90;;;36.60;66.30;;;;;;5128688;27;20189;-81
2023/12/28 07:31:05;;;;;;;2.63;1.02;;;36.80;66.30;;;;;;5105459;27;20189;-82
2023/12/28 07:33:36;;;;;;;3.40;0.90;;;36.60;69.90;;;;;;5128594;27;20292;-81
2023/12/28 07:36:07;;;;;;;6.43;1.05;;;36.40;70.50;;;;;;5127680;28;20201;-81
2023/12/28 07:38:38;;;;;;;2.15;0.77;;;36.20;70.70;;;;;;5147896;27;20205;-81
2023/12/28 07:41:09;;;;;;;2.17;0.90;;;35.60;73.10;;;;;;5096250;27;20278;-81
2023/12/28 07:43:42;;;;;;;3.95;1.02;;;35.10;74.60;;;;;;5115321;28;20187;-81
2023/12/28 07:46:12;;;;;;;2.63;0.90;;;34.80;77.00;;;;;;5126758;28;20204;-80
2023/12/28 07:48:43;;;;;;;1.92;0.65;;;34.60;76.70;;;;;;5114771;28;20734;-80
2023/12/28 07:51:17;;;;;;;3.38;0.75;;;34.30;77.30;;;;;;5058085;28;20252;-79
2023/12/28 07:53:47;;;;;;;3.13;0.80;;;34.20;78.60;;;;;;5096115;28;20196;-81
2023/12/28 07:56:18;;;;;;;3.35;0.80;;;34.20;78.20;;;;;;5093424;28;20244;-81
2023/12/28 07:58:51;;;;;;;1.92;0.63;;;33.80;80.00;;;;;;5097276;28;20195;-82
2023/12/28 08:01:20;;;;;;;2.72;0.60;;;33.40;80.70;;;;;;5107997;28;20317;-81
2023/12/28 08:03:51;;;;;;;1.52;0.80;;;33.30;81.30;;;;;;5108650;28;20343;-81
2023/12/28 08:06:22;;;;;;;1.77;0.77;;;32.90;81.70;;;;;;5109002;27;20201;-80
2023/12/28 08:08:53;;;;;;;0.57;0.55;;;32.60;81.50;;;;;;5094486;27;20276;-81
2023/12/28 08:11:24;;;;;;;1.17;0.60;;;32.30;82.70;;;;;;5108442;27;20198;-79
2023/12/28 08:13:57;;;;;;;1.52;0.60;;;31.80;87.10;;;;;;5100391;27;20225;-78
2023/12/28 08:16:28;;;;;;;1.20;0.60;;;31.50;89.40;;;;;;5097675;28;20205;-83
2023/12/28 08:18:59;;;;;;;2.13;0.85;;;31.00;89.80;;;;;;5107866;28;20205;-81
2023/12/28 08:21:30;;;;;;;0.85;0.57;;;30.60;91.40;;;;;;5087168;27;20246;-81
2023/12/28 08:24:01;;;;;;;2.92;0.70;;;30.20;93.00;;;;;;5123716;27;20326;-80
2023/12/28 08:26:32;;;;;;;2.05;0.98;;;29.90;95.00;;;;;;5120783;27;20649;-80
2023/12/28 08:29:05;;;;;;;2.30;0.70;;;29.70;95.00;;;;;;5112499;27;20573;-81
2023/12/28 08:31:36;;;;;;;2.35;0.93;;;29.40;95.80;;;;;;5100544;28;20198;-78
2023/12/28 08:34:06;;;;;;;2.03;0.85;;;29.20;96.80;;;;;;5113956;27;20320;-80
2023/12/28 08:36:37;;;;;;;1.25;0.70;;;29.00;97.10;;;;;;5129138;27;20289;-79
2023/12/28 08:39:08;;;;;;;1.48;0.75;;;28.80;98.30;;;;;;5128571;27;20197;-81
2023/12/28 08:41:39;;;;;;;1.88;0.82;;;28.60;99.90;;;;;;5115660;27;20586;-80
2023/12/28 08:44:11;;;;;;;1.27;0.80;;;28.40;99.90;;;;;;5111890;27;20620;-80
2023/12/28 08:46:42;;;;;;;1.92;1.05;;;28.30;99.90;;;;;;5105395;28;20281;-80
2023/12/28 08:49:13;;;;;;;0.93;0.68;;;28.10;99.90;;;;;;5117626;27;20225;-80
2023/12/28 08:51:44;;;;;;;2.40;0.70;;;28.00;99.90;;;;;;5139913;27;20194;-80
2023/12/28 08:54:15;;;;;;;2.40;0.60;;;27.80;99.90;;;;;;5132808;27;20182;-81
2023/12/28 08:56:46;;;;;;;2.97;0.77;;;27.70;99.90;;;;;;5136511;27;20213;-80
2023/12/28 08:59:18;;;;;;;1.40;0.60;;;27.60;99.90;;;;;;5148943;27;20277;-81
2023/12/28 09:01:49;;;;;;;2.08;0.70;;;27.50;99.90;;;;;;5148135;27;20734;-79
2023/12/28 09:04:20;;;;;;;1.75;0.50;;;27.40;99.90;;;;;;5138471;27;20284;-81
2023/12/28 09:06:54;;;;;;;3.10;0.75;;;27.40;99.90;;;;;;5140919;27;20643;-81
2023/12/28 09:09:32;;;;;;;0.75;0.50;;;27.30;99.90;;;;;;5136315;27;20293;-80
2023/12/28 09:12:07;;;;;;;1.42;0.60;;;27.20;99.90;;;;;;5128261;27;20228;-80
2023/12/28 09:14:42;;;;;;;2.75;0.65;;;27.10;99.90;;;;;;5133112;27;20189;-79
2023/12/28 09:17:16;;;;;;;1.90;0.63;;;27.00;99.90;;;;;;5119842;27;20220;-79
2023/12/28 09:19:50;;;;;;;2.05;0.70;;;26.80;99.90;;;;;;5128853;27;20186;-79
2023/12/28 09:22:23;;;;;;;1.17;0.65;;;26.80;99.90;;;;;;5128967;27;20699;-80
2023/12/28 09:24:54;;;;;;;1.65;0.80;;;26.80;99.90;;;;;;5129223;27;20205;-80
2023/12/28 09:27:25;;;;;;;1.70;0.70;;;26.70;99.90;;;;;;5132340;27;20200;-77
2023/12/28 09:30:03;;;;;;;1.33;0.55;;;26.60;99.90;;;;;;5126486;27;20260;-78
2023/12/28 09:32:34;;;;;;;1.52;0.70;;;26.60;99.90;;;;;;5116818;27;20210;-78
2023/12/28 09:35:13;;;;;;;1.60;0.70;;;26.50;99.90;;;;;;5116156;27;20221;-79
2023/12/28 09:37:44;;;;;;;1.48;0.73;;;26.50;99.90;;;;;;5125604;27;20249;-79
2023/12/28 09:40:18;;;;;;;2.65;0.90;;;26.40;99.90;;;;;;5133452;27;20229;-78
2023/12/28 09:42:59;;;;;;;2.78;0.73;;;26.40;99.90;;;;;;5121861;27;20243;-79
2023/12/28 09:45:32;;;;;;;2.30;0.88;;;26.40;99.90;;;;;;5133483;27;20743;-80
2023/12/28 09:48:06;;;;;;;1.23;0.80;;;26.40;99.90;;;;;;5132619;27;20186;-78
2023/12/28 09:50:43;;;;;;;1.90;0.80;;;26.40;99.90;;;;;;5136826;27;20291;-77
2023/12/28 09:53:15;;;;;;;1.90;0.80;;;26.40;99.90;;;;;;5127412;27;20201;-78
2023/12/28 09:55:49;;;;;;;0.70;0.60;;;26.40;99.90;;;;;;5131867;27;20652;-78
2023/12/28 09:58:25;;;;;;;3.00;0.88;;;26.30;99.90;;;;;;5120220;27;20277;-78
2023/12/28 10:00:58;;;;;;;2.60;0.63;;;26.30;99.90;;;;;;5132828;27;20212;-77
2023/12/28 10:03:32;;;;;;;2.40;0.70;;;26.20;99.90;;;;;;5125364;27;20259;-80
2023/12/28 10:06:06;;;;;;;2.92;0.80;;;26.10;99.90;;;;;;5131728;27;20204;-80
2023/12/28 10:11:29;;;;;;;1.75;0.60;;;26.10;99.90;;;;;;5166138;22;20226;-77
2023/12/28 10:14:02;;;;;;;1.95;0.77;;;26.00;99.90;;;;;;5119981;28;20218;-77
2023/12/28 10:16:37;;;;;;;1.88;0.65;;;26.00;99.90;;;;;;5135016;27;20194;-78
2023/12/28 10:19:27;;;;;;;1.45;0.70;;;26.00;99.90;;;;;;5158020;27;20197;-77
2023/12/28 10:21:59;;;;;;;2.83;0.90;;;26.00;99.90;;;;;;5129183;27;20213;-77
2023/12/28 10:24:30;;;;;;;2.42;0.70;;;26.00;99.90;;;;;;5130631;27;20232;-77
2023/12/28 10:27:01;;;;;;;5.90;0.80;;;26.00;99.90;;;;;;5132687;27;20262;-77
2023/12/28 10:29:31;;;;;;;2.20;0.63;;;25.90;99.90;;;;;;5131864;27;20224;-79
2023/12/28 10:32:04;;;;;;;2.45;0.52;;;25.90;99.90;;;;;;5125454;27;20268;-79
2023/12/28 10:34:35;;;;;;;1.10;0.55;;;25.90;99.90;;;;;;5129546;27;20199;-79
2023/12/28 10:37:11;;;;;;;4.45;0.90;;;25.90;99.90;;;;;;5124534;27;20196;-78
2023/12/28 10:39:46;;;;;;;1.98;0.73;;;25.90;99.90;;;;;;5122623;27;20213;-78
2023/12/28 10:42:19;;;;;;;1.50;0.70;;;25.90;99.90;;;;;;5126589;27;20229;-79
2023/12/28 10:44:55;;;;;;;2.42;0.57;;;25.90;99.90;;;;;;5122105;27;20294;-79
2023/12/28 10:47:31;;;;;;;3.00;0.55;;;25.90;99.90;;;;;;5132246;27;20213;-79
2023/12/28 10:50:07;;;;;;;1.80;0.70;;;25.90;99.90;;;;;;5112727;27;20236;-79
2023/12/28 10:52:46;;;;;;;1.88;0.68;;;25.80;99.90;;;;;;5111751;28;20198;-79
2023/12/28 10:55:29;;;;;;;3.53;0.70;;;25.80;99.90;;;;;;5117011;27;20240;-79
2023/12/28 10:58:08;;;;;;;1.40;0.63;;;25.80;99.90;;;;;;5130782;27;20222;-78
2023/12/28 11:00:44;;;;;;;0.95;0.40;;;25.80;99.90;;;;;;5136805;27;20200;-79
2023/12/28 11:03:21;;;;;;;1.23;0.50;;;25.70;99.90;;;;;;5142427;27;20220;-78
2023/12/28 11:05:53;;;;;;;2.55;0.82;;;25.70;99.90;;;;;;5131024;27;20220;-79
2023/12/28 11:08:25;;;;;;;3.28;0.63;;;25.70;99.90;;;;;;5143176;27;20262;-77
2023/12/28 11:10:57;;;;;;;3.70;0.80;;;25.70;99.90;;;;;;5130440;27;20329;-77
2023/12/28 11:13:28;;;;;;;2.38;0.75;;;25.70;99.90;;;;;;5126860;27;20198;-77
2023/12/28 11:16:00;;;;;;;2.40;0.73;;;25.70;99.90;;;;;;5129713;28;20712;-77
2023/12/28 11:18:33;;;;;;;1.23;0.70;;;25.60;99.90;;;;;;5116606;28;20708;-77
2023/12/28 11:21:07;;;;;;;3.03;0.70;;;25.60;99.90;;;;;;5122012;27;20201;-78
2023/12/28 11:23:38;;;;;;;1.70;0.70;;;25.50;99.90;;;;;;5124044;27;20228;-81
2023/12/28 11:26:20;;;;;;;2.40;0.70;;;25.50;99.90;;;;;;5127830;28;20660;-77
2023/12/28 11:28:51;;;;;;;3.33;0.70;;;25.50;99.90;;;;;;5122338;27;20210;-78
2023/12/28 11:31:22;;;;;;;2.22;0.70;;;25.50;99.90;;;;;;5128925;27;20613;-77
2023/12/28 11:33:55;;;;;;;2.53;0.70;;;25.50;99.90;;;;;;5130793;28;20284;-77
2023/12/28 11:36:29;;;;;;;1.70;0.55;;;25.50;99.90;;;;;;5116968;27;20236;-77
2023/12/28 11:39:06;;;;;;;1.52;0.68;;;25.50;99.90;;;;;;5142873;27;20300;-77
2023/12/28 11:41:38;;;;;;;1.95;0.60;;;25.40;99.90;;;;;;5144125;27;20601;-77
2023/12/28 11:44:10;;;;;;;2.58;0.80;;;25.40;99.90;;;;;;5123876;27;20264;-78
2023/12/28 11:46:40;;;;;;;0.80;0.80;;;25.40;99.90;;;;;;5119584;27;20210;-78
2023/12/28 11:49:14;;;;;;;1.70;0.52;;;25.40;99.90;;;;;;5129877;27;20308;-78
2023/12/28 11:51:45;;;;;;;1.33;0.80;;;25.40;99.90;;;;;;5113118;27;20772;-78
2023/12/28 11:54:16;;;;;;;1.33;0.60;;;25.30;99.90;;;;;;5123720;27;20218;-78
2023/12/28 11:56:47;;;;;;;1.50;0.80;;;25.30;99.90;;;;;;5128711;27;20193;-78
2023/12/28 11:59:17;;;;;;;1.33;0.68;;;25.30;99.90;;;;;;5103593;27;20229;-77
2023/12/28 12:01:53;;;;;;;3.10;0.80;;;25.30;99.90;;;;;;5117617;27;20628;-77
2023/12/28 12:04:25;;;;;;;2.53;0.70;;;25.20;99.90;;;;;;5120265;27;20236;-77
2023/12/28 12:06:56;;;;;;;3.58;0.90;;;25.20;99.90;;;;;;5132804;27;20220;-77
2023/12/28 12:09:28;;;;;;;0.68;0.52;;;25.20;99.90;;;;;;5117550;27;20724;-77
2023/12/28 12:12:00;;;;;;;1.60;0.80;;;25.20;99.90;;;;;;5126472;27;20228;-78
2023/12/28 12:14:31;;;;;;;4.07;0.68;;;25.10;99.90;;;;;;5130657;27;20194;-78
2023/12/28 12:17:02;;;;;;;1.52;0.60;;;25.10;99.90;;;;;;5126379;27;20194;-79
2023/12/28 12:19:35;;;;;;;3.95;0.60;;;25.10;99.90;;;;;;5123902;27;20210;-79
2023/12/28 12:22:06;;;;;;;0.85;0.70;;;25.10;99.90;;;;;;5126261;27;20213;-78
2023/12/28 12:24:38;;;;;;;2.08;0.73;;;25.10;99.90;;;;;;5135856;27;20194;-78
2023/12/28 12:27:09;;;;;;;3.20;0.75;;;25.00;99.90;;;;;;5131852;27;20204;-78
2023/12/28 12:29:39;;;;;;;2.58;0.63;;;25.10;99.90;;;;;;5129204;27;20215;-78
2023/12/28 12:32:11;;;;;;;1.88;0.80;;;25.00;99.90;;;;;;5129524;27;20210;-78
2023/12/28 12:34:43;;;;;;;2.03;0.63;;;25.00;99.90;;;;;;5152047;27;20214;-79
2023/12/28 12:37:14;;;;;;;2.33;0.90;;;25.00;99.90;;;;;;5135957;27;20217;-77
2023/12/28 12:39:45;;;;;;;2.03;0.70;;;25.00;99.90;;;;;;5136692;27;20190;-79
2023/12/28 12:42:17;;;;;;;1.13;0.70;;;24.90;99.90;;;;;;5134537;27;20218;-79
2023/12/28 12:44:48;;;;;;;1.60;0.82;;;24.90;99.90;;;;;;5130062;27;20213;-79
2023/12/28 12:47:18;;;;;;;1.95;0.73;;;24.90;99.90;;;;;;5126746;27;20200;-79
2023/12/28 12:49:54;;;;;;;2.28;0.65;;;24.90;99.90;;;;;;5131396;27;20700;-79
2023/12/28 12:52:25;;;;;;;2.80;0.82;;;24.90;99.90;;;;;;5133505;27;20194;-79
2023/12/28 12:55:00;;;;;;;3.85;0.95;;;24.80;99.90;;;;;;5127091;27;20218;-79
2023/12/28 12:57:30;;;;;;;1.75;0.90;;;24.80;99.90;;;;;;5134065;27;20228;-79
2023/12/28 13:00:04;;;;;;;3.00;0.65;;;24.80;99.90;;;;;;5132434;27;20306;-79
2023/12/28 13:02:38;;;;;;;2.42;0.80;;;24.80;99.90;;;;;;5133596;27;20628;-79
2023/12/28 13:05:11;;;;;;;3.85;1.00;;;24.80;99.90;;;;;;5133078;27;20270;-79
2023/12/28 13:07:42;;;;;;;1.50;0.82;;;24.80;99.90;;;;;;5130713;27;20229;-79
2023/12/28 13:10:13;;;;;;;2.80;1.00;;;24.80;99.90;;;;;;5128737;27;20317;-79
2023/12/28 13:12:44;;;;;;;1.77;1.00;;;24.70;99.90;;;;;;5118158;27;20555;-79
2023/12/28 13:15:15;;;;;;;3.58;1.02;;;24.70;99.90;;;;;;5152468;27;20762;-79